Time;durP1;ratioP1;P1;durP2;ratioP2;P2;SDS_P1;SDS_P2;PMS_P1;PMS_P2;Temp;Humidity;BMP_temperature;BMP_pressure;BME280_temperature;BME280_humidity;BME280_pressure;Samples;Min_cycle;Max_cycle;Signal;HPM_P1;HPM_P2
2022/03/13 00:00:07;;;;;;;21.25;10.05;;;;;;;-4.22;69.55;101023.69;5034292;28;20087;-76
2022/03/13 00:02:40;;;;;;;22.38;9.73;;;;;;;-4.29;69.47;101001.00;5034387;28;20152;-76
2022/03/13 00:05:16;;;;;;;23.38;10.45;;;;;;;-4.33;69.58;101008.38;5034023;28;20084;-77
2022/03/13 00:07:45;;;;;;;21.50;10.38;;;;;;;-4.36;69.43;101015.81;5034578;28;20524;-76
2022/03/13 00:10:13;;;;;;;20.52;10.13;;;;;;;-4.36;69.92;101015.81;5034028;28;20084;-78
2022/03/13 00:12:40;;;;;;;24.90;10.05;;;;;;;-4.44;69.69;101009.19;5034122;28;20075;-78
2022/03/13 00:15:12;;;;;;;23.65;9.80;;;;;;;-4.51;69.87;101001.81;5033990;28;20107;-77
2022/03/13 00:17:39;;;;;;;20.42;8.80;;;;;;;-4.51;70.04;101016.22;5034455;28;20052;-78
2022/03/13 00:20:08;;;;;;;21.95;9.60;;;;;;;-4.58;70.37;101014.81;5034164;28;20061;-78
2022/03/13 00:22:37;;;;;;;24.70;9.05;;;;;;;-4.62;70.57;101012.78;5034019;28;20080;-77
2022/03/13 00:25:10;;;;;;;21.95;9.13;;;;;;;-4.67;70.32;101012.41;5051107;28;20073;-78
2022/03/13 00:27:39;;;;;;;20.85;9.38;;;;;;;-4.74;70.82;101005.00;5055403;28;20149;-78
2022/03/13 00:30:07;;;;;;;21.58;9.32;;;;;;;-4.69;70.61;101015.59;5053676;28;20061;-79
2022/03/13 00:32:34;;;;;;;18.48;9.80;;;;;;;-4.67;70.84;101004.75;5053393;28;20052;-78
2022/03/13 00:35:01;;;;;;;22.15;8.85;;;;;;;-4.64;70.91;101011.78;5053501;28;20053;-77
2022/03/13 00:37:28;;;;;;;23.67;9.73;;;;;;;-4.63;70.52;101000.78;5053197;28;20057;-78
2022/03/13 00:39:56;;;;;;;19.38;9.13;;;;;;;-4.57;70.52;101020.03;5053444;28;20088;-76
2022/03/13 00:42:24;;;;;;;21.85;8.68;;;;;;;-4.60;70.54;101007.06;5053189;28;20045;-78
2022/03/13 00:44:51;;;;;;;18.70;8.32;;;;;;;-4.67;70.67;100993.66;5053431;28;20572;-78
2022/03/13 00:47:19;;;;;;;20.25;9.38;;;;;;;-4.64;70.38;100999.03;5053247;28;20049;-78
2022/03/13 00:49:48;;;;;;;20.70;8.73;;;;;;;-4.69;70.53;100995.19;5053404;28;20075;-76
2022/03/13 00:52:17;;;;;;;21.38;9.55;;;;;;;-4.73;70.87;101006.81;5053292;28;20064;-78
2022/03/13 00:54:43;;;;;;;21.30;8.77;;;;;;;-4.78;70.98;101003.84;5052855;28;20053;-78
2022/03/13 00:57:11;;;;;;;21.35;9.65;;;;;;;-4.81;70.93;101013.81;5052490;28;20053;-76
2022/03/13 00:59:38;;;;;;;24.42;10.65;;;;;;;-4.84;71.17;101011.03;5053407;28;20067;-76
2022/03/13 01:02:05;;;;;;;24.98;9.50;;;;;;;-4.92;71.47;100998.41;5053100;28;20497;-77
2022/03/13 01:04:34;;;;;;;21.50;9.63;;;;;;;-4.95;71.73;101020.34;5052731;28;20394;-77
2022/03/13 01:07:03;;;;;;;21.48;9.77;;;;;;;-5.04;71.46;101017.00;5053072;28;20084;-76
2022/03/13 01:09:29;;;;;;;21.60;9.38;;;;;;;-5.09;71.56;101014.84;5053112;28;20057;-78
2022/03/13 01:11:57;;;;;;;22.42;9.27;;;;;;;-5.08;71.93;101021.72;5053056;28;20048;-77
2022/03/13 01:14:24;;;;;;;77.22;27.80;;;;;;;-5.11;71.54;101011.28;5052945;28;20107;-77
2022/03/13 01:17:00;;;;;;;68.00;28.10;;;;;;;-5.08;71.68;101027.69;5052948;28;20052;-78
2022/03/13 01:19:28;;;;;;;51.92;22.75;;;;;;;-5.10;71.42;101019.03;5052735;28;20052;-80
2022/03/13 01:21:55;;;;;;;46.40;23.50;;;;;;;-5.13;71.48;101031.53;5052664;28;20512;-79
2022/03/13 01:24:29;;;;;;;36.50;17.90;;;;;;;-5.22;71.56;101013.81;5052747;28;20139;-78
2022/03/13 01:27:02;;;;;;;28.00;13.65;;;;;;;-5.17;71.79;101016.72;5053161;28;20064;-79
2022/03/13 01:29:30;;;;;;;25.40;10.20;;;;;;;-5.18;71.75;101026.03;5052945;28;20052;-76
2022/03/13 01:31:58;;;;;;;22.25;8.50;;;;;;;-5.15;71.67;101040.69;5052556;28;20056;-77
2022/03/13 01:34:36;;;;;;;21.70;9.00;;;;;;;-5.13;71.96;101028.97;5045997;28;20057;-78
2022/03/13 01:37:08;;;;;;;20.02;9.40;;;;;;;-5.12;71.82;101038.38;5035095;28;20054;-78
2022/03/13 01:39:35;;;;;;;18.63;8.38;;;;;;;-5.13;71.59;101025.53;5034725;28;20139;-79
2022/03/13 01:42:03;;;;;;;17.33;8.55;;;;;;;-5.17;71.59;101026.94;5052602;28;20052;-80
2022/03/13 01:44:30;;;;;;;22.63;10.25;;;;;;;-5.15;71.96;101044.13;5051281;28;20103;-77
2022/03/13 01:47:07;;;;;;;19.10;8.98;;;;;;;-5.29;72.02;101025.88;5052814;28;20107;-78
2022/03/13 01:49:35;;;;;;;19.65;9.30;;;;;;;-5.24;72.09;101047.56;5052963;28;20131;-78
2022/03/13 01:52:04;;;;;;;21.33;8.82;;;;;;;-5.80;72.27;100960.47;5052897;28;20045;-78
2022/03/13 01:54:44;;;;;;;22.38;9.13;;;;;;;-5.33;72.16;101036.56;5052381;28;20068;-78
2022/03/13 01:57:32;;;;;;;20.88;9.88;;;;;;;-5.83;72.00;100970.38;5051934;28;20052;-79
2022/03/13 02:00:08;;;;;;;17.80;8.50;;;;;;;-5.71;72.16;100999.44;5051724;28;20464;-79
2022/03/13 02:02:44;;;;;;;17.58;8.43;;;;;;;-5.54;72.49;100998.34;5051783;28;20136;-77
2022/03/13 02:05:35;;;;;;;24.63;9.38;;;;;;;-5.28;72.37;101040.41;5051249;28;20051;-78
2022/03/13 02:08:11;;;;;;;21.20;8.85;;;;;;;-5.29;72.35;101047.19;5054236;28;20057;-77
2022/03/13 02:10:38;;;;;;;17.58;8.25;;;;;;;-5.32;72.34;101049.44;5043466;28;20055;-78
2022/03/13 02:13:06;;;;;;;18.13;8.18;;;;;;;-5.32;72.34;101048.56;5036232;28;20107;-78
2022/03/13 02:15:33;;;;;;;20.25;9.27;;;;;;;-5.28;72.41;101054.03;5035964;28;20428;-79
2022/03/13 02:18:05;;;;;;;17.67;7.85;;;;;;;-5.27;71.98;101035.47;5036918;28;20111;-77
2022/03/13 02:20:40;;;;;;;17.00;7.90;;;;;;;-5.16;71.92;101044.91;5035947;28;20053;-78
2022/03/13 02:23:17;;;;;;;21.48;8.85;;;;;;;-5.18;71.96;101033.69;5036275;28;20127;-77
2022/03/13 02:25:48;;;;;;;20.10;8.50;;;;;;;-4.93;71.91;101053.56;5036139;28;20051;-76
2022/03/13 02:28:20;;;;;;;15.98;7.95;;;;;;;-4.90;71.19;101041.09;5036005;28;20053;-78
2022/03/13 02:30:48;;;;;;;20.52;9.18;;;;;;;-4.93;71.65;101028.09;5054990;28;20432;-76
2022/03/13 02:33:18;;;;;;;20.20;8.65;;;;;;;-4.96;71.58;101025.28;5055904;28;20052;-77
2022/03/13 02:35:51;;;;;;;16.77;8.38;;;;;;;-5.06;71.92;101031.25;5055665;28;20060;-77
2022/03/13 02:38:19;;;;;;;18.33;8.00;;;;;;;-4.98;71.64;101050.63;5060875;28;20053;-76
2022/03/13 02:40:47;;;;;;;18.98;8.30;;;;;;;-5.15;72.00;101021.19;5061216;28;20135;-77
2022/03/13 02:43:16;;;;;;;20.63;8.85;;;;;;;-5.21;72.41;101035.06;5063979;28;20072;-77
2022/03/13 02:45:43;;;;;;;17.42;8.88;;;;;;;-5.18;72.25;101040.44;5057952;28;20075;-78
2022/03/13 02:48:15;;;;;;;17.50;8.45;;;;;;;-5.15;72.17;101049.22;5055603;28;20173;-78
2022/03/13 02:50:42;;;;;;;19.73;8.32;;;;;;;-5.14;72.44;101034.84;5055350;28;20069;-76
2022/03/13 02:53:10;;;;;;;20.42;9.35;;;;;;;-5.10;72.05;101036.84;5054173;28;20052;-77
2022/03/13 02:55:36;;;;;;;19.80;8.90;;;;;;;-5.09;71.89;101036.13;5054968;28;20456;-78
2022/03/13 02:58:05;;;;;;;17.42;9.00;;;;;;;-4.97;71.60;101047.34;5054157;28;20059;-77
2022/03/13 03:00:47;;;;;;;20.15;9.70;;;;;;;-4.85;71.39;101042.38;5054984;28;20155;-78
2022/03/13 03:03:20;;;;;;;16.80;7.97;;;;;;;-4.86;71.51;101032.94;5055377;28;20048;-78
2022/03/13 03:05:47;;;;;;;19.73;9.82;;;;;;;-4.75;71.25;101037.28;5055350;28;20088;-78
2022/03/13 03:08:14;;;;;;;20.73;9.30;;;;;;;-4.62;70.62;101041.72;5054848;28;20099;-79
2022/03/13 03:10:41;;;;;;;20.02;9.20;;;;;;;-4.60;70.60;101024.03;5055832;28;20063;-78
2022/03/13 03:13:10;;;;;;;19.88;9.02;;;;;;;-4.46;70.50;101041.31;5053591;28;20412;-77
2022/03/13 03:15:38;;;;;;;20.17;9.23;;;;;;;-4.46;70.40;101023.47;5049452;28;20091;-79
2022/03/13 03:18:07;;;;;;;20.38;8.90;;;;;;;-4.26;69.89;101048.03;5054261;28;20080;-79
2022/03/13 03:20:34;;;;;;;18.42;8.50;;;;;;;-4.17;69.89;101058.13;5033883;28;20410;-78
2022/03/13 03:23:02;;;;;;;15.57;8.20;;;;;;;-4.07;69.69;101062.31;5034790;28;20045;-77
2022/03/13 03:25:29;;;;;;;19.23;8.65;;;;;;;-4.00;69.58;101046.69;5034661;28;20413;-78
2022/03/13 03:27:58;;;;;;;18.23;9.40;;;;;;;-3.94;69.18;101045.56;5034601;28;20152;-77
2022/03/13 03:30:27;;;;;;;19.00;8.15;;;;;;;-3.84;69.28;101048.84;5034198;28;20479;-79
2022/03/13 03:32:55;;;;;;;16.52;7.78;;;;;;;-3.99;68.82;101013.66;5034501;28;20073;-78
2022/03/13 03:35:24;;;;;;;17.92;8.85;;;;;;;-3.71;69.11;101060.13;5033261;28;20069;-78
2022/03/13 03:37:54;;;;;;;17.50;6.90;;;;;;;-3.67;68.76;101045.97;5034551;28;20055;-78
2022/03/13 03:40:23;;;;;;;15.82;8.65;;;;;;;-3.59;68.15;101047.47;5034483;28;20054;-79
2022/03/13 03:42:50;;;;;;;15.30;6.38;;;;;;;-3.49;68.12;101059.28;5034300;28;20049;-77
2022/03/13 03:45:17;;;;;;;13.40;6.68;;;;;;;-3.44;67.61;101045.22;5033027;28;20410;-79
2022/03/13 03:47:45;;;;;;;17.30;7.15;;;;;;;-3.43;67.62;101038.44;5033299;28;20107;-78
2022/03/13 03:50:14;;;;;;;18.00;7.55;;;;;;;-3.48;67.53;101021.84;5034375;28;20080;-78
2022/03/13 03:52:41;;;;;;;16.50;7.57;;;;;;;-3.26;67.23;101034.63;5034072;28;20092;-79
2022/03/13 03:55:08;;;;;;;15.48;8.05;;;;;;;-3.16;67.32;101038.00;5034271;28;20045;-76
2022/03/13 03:57:36;;;;;;;15.90;8.07;;;;;;;-3.10;66.90;101045.25;5033896;28;20049;-78
2022/03/13 04:00:06;;;;;;;18.63;9.65;;;;;;;-3.04;66.83;101032.94;5043275;28;20102;-76
2022/03/13 04:02:40;;;;;;;16.35;9.20;;;;;;;-2.91;66.61;101034.75;5053930;28;20053;-77
2022/03/13 04:05:09;;;;;;;18.70;9.82;;;;;;;-3.03;66.42;101006.59;5054184;28;20503;-77
2022/03/13 04:07:36;;;;;;;20.50;10.20;;;;;;;-2.90;66.81;101023.78;5053649;28;20413;-77
2022/03/13 04:10:06;;;;;;;36.10;15.38;;;;;;;-2.76;66.11;101022.22;5053797;28;20057;-77
2022/03/13 04:12:34;;;;;;;24.00;10.55;;;;;;;-2.65;65.96;101036.72;5053721;28;20536;-77
2022/03/13 04:15:02;;;;;;;38.22;15.93;;;;;;;-2.78;65.73;100996.53;5053978;28;20513;-82
2022/03/13 04:17:30;;;;;;;44.03;17.05;;;;;;;-2.51;65.51;101035.19;5054073;28;20150;-77
2022/03/13 04:19:58;;;;;;;82.68;30.85;;;;;;;-2.45;65.59;101033.09;5054290;28;20059;-77
2022/03/13 04:22:25;;;;;;;38.42;15.80;;;;;;;-2.31;65.07;101024.75;5053845;28;20152;-77
2022/03/13 04:24:52;;;;;;;28.88;14.05;;;;;;;-2.20;65.07;101042.56;5052848;28;20087;-76
2022/03/13 04:27:19;;;;;;;22.85;11.00;;;;;;;-2.16;65.10;101029.22;5054126;28;20076;-78
2022/03/13 04:29:45;;;;;;;23.02;11.63;;;;;;;-2.07;64.69;101015.38;5053885;28;20045;-76
2022/03/13 04:32:13;;;;;;;21.10;10.77;;;;;;;-1.91;64.66;101035.34;5052734;28;20072;-78
2022/03/13 04:34:41;;;;;;;17.23;9.27;;;;;;;-1.89;64.35;101028.66;5053939;28;20053;-78
2022/03/13 04:37:08;;;;;;;18.08;9.20;;;;;;;-1.90;64.16;101008.03;5053473;28;20286;-78
2022/03/13 04:39:36;;;;;;;16.90;9.23;;;;;;;-1.87;64.00;101021.97;5049575;28;20057;-77
2022/03/13 04:42:06;;;;;;;30.02;14.27;;;;;;;-1.75;64.29;101031.28;5042367;28;20151;-77
2022/03/13 04:44:34;;;;;;;21.48;10.10;;;;;;;-1.78;63.57;101018.28;5052312;28;20075;-77
2022/03/13 04:47:01;;;;;;;26.38;12.80;;;;;;;-1.73;64.00;101028.06;5054142;28;20056;-78
2022/03/13 04:49:28;;;;;;;31.58;12.90;;;;;;;-1.60;63.91;101017.00;5053364;28;20056;-78
2022/03/13 04:51:55;;;;;;;19.02;8.75;;;;;;;-1.48;63.35;101029.81;5053328;28;20052;-77
2022/03/13 04:54:23;;;;;;;16.23;8.18;;;;;;;-1.41;63.05;101023.44;5053159;28;20123;-76
2022/03/13 04:56:51;;;;;;;16.15;9.15;;;;;;;-1.42;62.68;101014.81;5053641;28;20182;-77
2022/03/13 04:59:18;;;;;;;18.70;9.13;;;;;;;-1.41;63.26;101029.44;5054211;28;20087;-77
2022/03/13 05:01:45;;;;;;;15.52;8.68;;;;;;;-1.53;63.01;101008.94;5052819;28;20084;-76
2022/03/13 05:04:14;;;;;;;16.55;9.52;;;;;;;-1.42;63.39;101030.22;5052543;28;20482;-76
2022/03/13 05:06:43;;;;;;;14.95;8.38;;;;;;;-1.32;62.91;101030.06;5052646;28;20049;-78
2022/03/13 05:09:10;;;;;;;15.55;8.85;;;;;;;-1.23;62.98;101029.81;5052778;28;20060;-78
2022/03/13 05:11:39;;;;;;;16.70;9.20;;;;;;;-1.19;62.72;101021.56;5052712;28;20060;-76
2022/03/13 05:14:06;;;;;;;18.48;9.80;;;;;;;-1.15;62.79;101035.50;5052717;28;20060;-76
2022/03/13 05:16:33;;;;;;;14.30;8.20;;;;;;;-1.16;62.69;101033.69;5052739;28;20501;-77
2022/03/13 05:19:00;;;;;;;15.75;8.65;;;;;;;-1.18;62.84;101032.69;5051564;28;20085;-79
2022/03/13 05:21:28;;;;;;;18.00;9.00;;;;;;;-1.22;62.80;101015.34;5052607;28;20061;-78
2022/03/13 05:23:55;;;;;;;15.30;7.93;;;;;;;-1.20;62.36;100996.72;5052731;28;20049;-78
2022/03/13 05:26:21;;;;;;;15.13;8.15;;;;;;;-0.97;62.07;101039.28;5051862;28;20052;-79
2022/03/13 05:28:48;;;;;;;14.30;8.20;;;;;;;-1.14;62.10;101002.28;5052253;28;20052;-79
2022/03/13 05:31:15;;;;;;;14.07;7.93;;;;;;;-0.91;61.96;101044.84;5052481;28;20095;-77
2022/03/13 05:33:42;;;;;;;16.42;8.23;;;;;;;-0.93;61.97;101050.66;5051186;28;20412;-77
2022/03/13 05:36:09;;;;;;;15.07;8.38;;;;;;;-0.94;61.96;101044.66;5052541;28;20081;-77
2022/03/13 05:38:36;;;;;;;16.60;9.43;;;;;;;-0.80;61.64;101050.72;5052710;28;20059;-79
2022/03/13 05:41:05;;;;;;;16.63;9.40;;;;;;;-0.70;61.45;101050.56;5052776;28;20059;-78
2022/03/13 05:43:33;;;;;;;17.30;9.23;;;;;;;-0.82;61.13;101031.75;5055789;28;20126;-78
2022/03/13 05:46:00;;;;;;;23.45;9.43;;;;;;;-0.75;61.30;101059.63;5058641;28;20087;-77
2022/03/13 05:48:30;;;;;;;15.77;8.45;;;;;;;-0.92;61.27;101055.91;5056865;28;20053;-79
2022/03/13 05:50:57;;;;;;;14.98;8.07;;;;;;;-0.97;61.18;101056.38;5056558;28;20057;-79
2022/03/13 05:53:24;;;;;;;13.95;7.40;;;;;;;-0.99;61.61;101065.63;5042731;28;20049;-78
2022/03/13 05:55:52;;;;;;;18.25;7.80;;;;;;;-0.93;61.41;101077.19;5054931;28;20052;-80
2022/03/13 05:58:19;;;;;;;12.40;6.63;;;;;;;-0.97;61.58;101084.59;5056196;28;20056;-76
2022/03/13 06:01:01;;;;;;;11.15;6.68;;;;;;;-1.06;61.74;101082.28;5056233;28;20103;-82
2022/03/13 06:03:30;;;;;;;13.18;7.38;;;;;;;-1.14;61.59;101084.31;5056093;28;20139;-75
2022/03/13 06:05:58;;;;;;;13.55;6.82;;;;;;;-1.16;62.11;101077.28;5055081;28;20456;-77
2022/03/13 06:08:27;;;;;;;12.48;6.97;;;;;;;-1.14;61.84;101058.69;5056313;28;20077;-78
2022/03/13 06:10:54;;;;;;;11.38;6.18;;;;;;;-0.88;61.65;101087.81;5055826;28;20479;-77
2022/03/13 06:13:22;;;;;;;10.77;6.60;;;;;;;-0.77;61.05;101073.16;5056096;28;20136;-77
2022/03/13 06:15:49;;;;;;;11.52;6.75;;;;;;;-0.62;60.94;101076.75;5056039;28;20115;-78
2022/03/13 06:18:16;;;;;;;10.60;6.45;;;;;;;-0.69;60.76;101069.41;5056271;28;20505;-77
2022/03/13 06:20:46;;;;;;;12.80;6.70;;;;;;;-0.63;60.98;101068.13;5057216;28;20049;-79
2022/03/13 06:23:13;;;;;;;12.23;6.72;;;;;;;-0.62;60.37;101076.75;5056221;28;20045;-79
2022/03/13 06:25:43;;;;;;;11.02;6.15;;;;;;;-0.73;60.33;101072.53;5056846;28;20151;-78
2022/03/13 06:28:14;;;;;;;9.50;5.38;;;;;;;-0.89;60.68;101052.66;5057457;28;20049;-77
2022/03/13 06:30:41;;;;;;;13.55;5.78;;;;;;;-0.91;60.61;101072.19;5056919;28;20084;-77
2022/03/13 06:33:08;;;;;;;9.70;5.30;;;;;;;-0.91;60.58;101091.03;5055602;28;20067;-77
2022/03/13 06:35:35;;;;;;;9.93;6.80;;;;;;;-0.95;60.93;101076.19;5055024;28;20428;-77
2022/03/13 06:38:02;;;;;;;6.38;3.95;;;;;;;-0.96;60.82;101061.63;5055499;28;20528;-77
2022/03/13 06:40:29;;;;;;;7.47;4.40;;;;;;;-0.84;60.40;101080.41;5055420;28;20080;-76
2022/03/13 06:42:58;;;;;;;8.00;5.03;;;;;;;-0.77;60.59;101071.47;5055401;28;20567;-77
2022/03/13 06:45:25;;;;;;;7.47;4.50;;;;;;;-0.55;60.29;101084.06;5055279;28;20095;-76
2022/03/13 06:47:52;;;;;;;7.07;4.13;;;;;;;-0.38;59.44;101061.19;5057226;28;20060;-75
2022/03/13 06:50:23;;;;;;;9.45;4.50;;;;;;;-0.15;59.13;101070.41;5055522;28;20048;-77
2022/03/13 06:52:53;;;;;;;7.57;4.70;;;;;;;-0.07;59.09;101075.25;5055341;28;20053;-79
2022/03/13 06:55:22;;;;;;;8.50;4.50;;;;;;;-0.08;59.16;101065.78;5053703;28;20488;-77
2022/03/13 06:57:50;;;;;;;7.43;4.43;;;;;;;0.01;58.80;101078.34;5054532;28;20057;-77
2022/03/13 07:00:19;;;;;;;10.45;4.70;;;;;;;-0.02;59.19;101061.03;5055055;28;20564;-76
2022/03/13 07:02:49;;;;;;;7.18;4.22;;;;;;;0.14;59.36;101070.63;5053703;28;20143;-78
2022/03/13 07:05:23;;;;;;;5.03;3.85;;;;;;;0.19;58.74;101061.53;5055066;28;20099;-79
2022/03/13 07:07:55;;;;;;;9.27;4.45;;;;;;;0.13;58.72;101040.59;5054632;28;20049;-76
2022/03/13 07:10:22;;;;;;;9.07;4.45;;;;;;;0.25;59.12;101065.28;5054938;28;20053;-78
2022/03/13 07:12:49;;;;;;;7.15;4.22;;;;;;;0.29;58.96;101050.16;5054615;28;20111;-76
2022/03/13 07:15:18;;;;;;;11.32;4.65;;;;;;;0.54;58.30;101049.13;5054513;28;20088;-78
2022/03/13 07:17:46;;;;;;;8.80;4.30;;;;;;;0.68;58.17;101043.16;5054346;28;20061;-78
2022/03/13 07:20:14;;;;;;;7.78;4.80;;;;;;;0.88;57.89;101025.47;5054972;28;20084;-77
2022/03/13 07:22:42;;;;;;;8.18;4.65;;;;;;;0.98;57.40;100996.94;5053927;28;20107;-76
2022/03/13 07:25:10;;;;;;;8.43;4.60;;;;;;;1.23;56.96;101009.59;5054410;28;20064;-77
2022/03/13 07:27:37;;;;;;;10.15;5.20;;;;;;;1.55;56.09;101005.41;5054456;28;20052;-79
2022/03/13 07:30:06;;;;;;;10.00;4.60;;;;;;;1.80;55.97;101016.31;5053385;28;20466;-78
2022/03/13 07:32:34;;;;;;;9.85;5.22;;;;;;;1.93;55.46;101022.19;5053600;28;20049;-77
2022/03/13 07:35:04;;;;;;;11.35;5.13;;;;;;;1.66;55.23;100946.78;5052253;28;20382;-79
2022/03/13 07:37:31;;;;;;;10.30;5.38;;;;;;;2.16;55.25;101003.72;5053505;28;20432;-78
2022/03/13 07:39:59;;;;;;;11.02;5.40;;;;;;;2.18;54.97;101008.97;5053918;28;20064;-77
2022/03/13 07:42:26;;;;;;;10.43;5.45;;;;;;;2.10;54.63;101003.38;5054069;28;20139;-77
2022/03/13 07:44:53;;;;;;;10.30;5.70;;;;;;;2.26;54.69;101012.88;5052931;28;20045;-77
2022/03/13 07:47:24;;;;;;;11.80;5.53;;;;;;;2.35;54.14;100991.88;5044125;28;20412;-78
2022/03/13 07:49:51;;;;;;;11.35;6.15;;;;;;;2.54;54.31;101028.16;5052849;28;20465;-78
2022/03/13 07:52:18;;;;;;;12.38;6.63;;;;;;;2.72;53.68;101022.22;5053597;28;20081;-78
2022/03/13 07:54:45;;;;;;;11.20;6.28;;;;;;;2.66;53.99;100991.81;5053655;28;20139;-78
2022/03/13 07:57:12;;;;;;;14.05;6.68;;;;;;;2.94;53.83;101024.22;5054485;28;20049;-78
2022/03/13 07:59:39;;;;;;;11.50;6.07;;;;;;;3.04;52.90;101001.56;5054138;28;20052;-77
2022/03/13 08:02:07;;;;;;;13.63;7.07;;;;;;;3.16;52.86;101019.41;5054128;28;20061;-78
2022/03/13 08:04:34;;;;;;;15.70;7.32;;;;;;;3.01;52.46;100998.84;5055092;28;20059;-79
2022/03/13 08:07:01;;;;;;;15.20;6.55;;;;;;;3.02;52.71;101010.91;5048800;28;20530;-78
2022/03/13 08:09:28;;;;;;;12.35;6.35;;;;;;;3.06;52.83;101028.34;5053538;28;20521;-77
2022/03/13 08:11:55;;;;;;;12.65;6.97;;;;;;;3.27;52.62;101030.28;5053455;28;20106;-79
2022/03/13 08:14:29;;;;;;;12.95;6.97;;;;;;;3.32;52.19;101023.63;5051876;28;20048;-81
2022/03/13 08:16:56;;;;;;;18.50;7.32;;;;;;;3.36;52.35;101045.34;5053162;28;20049;-79
2022/03/13 08:19:24;;;;;;;13.13;7.05;;;;;;;3.32;52.04;101015.00;5053130;28;20045;-80
2022/03/13 08:21:50;;;;;;;15.63;7.47;;;;;;;3.37;52.27;101029.91;5052185;28;20052;-78
2022/03/13 08:24:18;;;;;;;12.88;6.97;;;;;;;3.27;52.27;101038.91;5052214;28;20049;-78
2022/03/13 08:26:44;;;;;;;11.52;6.70;;;;;;;3.23;52.39;101046.41;5053538;28;20078;-78
2022/03/13 08:29:11;;;;;;;18.67;7.00;;;;;;;3.31;52.33;101037.34;5052410;28;20052;-77
2022/03/13 08:31:39;;;;;;;12.48;6.97;;;;;;;3.23;52.47;101031.81;5053411;28;20183;-77
2022/03/13 08:34:08;;;;;;;16.52;7.45;;;;;;;3.12;52.52;101014.88;5051712;28;20420;-77
2022/03/13 08:36:43;;;;;;;17.55;7.03;;;;;;;3.24;52.50;101027.53;5053145;28;20409;-77
2022/03/13 08:39:10;;;;;;;13.82;6.60;;;;;;;3.08;52.67;101011.25;5053195;28;20060;-79
2022/03/13 08:41:41;;;;;;;16.85;7.53;;;;;;;3.02;52.60;100994.56;5051970;28;20057;-78
2022/03/13 08:44:13;;;;;;;18.02;7.45;;;;;;;3.13;52.59;100998.56;5053358;28;20052;-79
2022/03/13 08:46:40;;;;;;;16.17;8.50;;;;;;;3.18;52.37;100975.56;5053139;28;20056;-79
2022/03/13 08:49:07;;;;;;;13.32;7.00;;;;;;;3.38;52.33;101000.72;5043296;28;20416;-79
2022/03/13 08:51:34;;;;;;;18.70;7.72;;;;;;;3.25;52.24;100988.88;5052869;28;20504;-78
2022/03/13 08:54:01;;;;;;;16.70;7.88;;;;;;;3.16;52.57;101008.16;5052915;28;20045;-80
2022/03/13 08:56:29;;;;;;;20.05;9.15;;;;;;;2.98;52.65;100983.16;5051928;28;20052;-79
2022/03/13 08:58:56;;;;;;;20.40;10.27;;;;;;;3.21;52.74;100988.63;5052027;28;20053;-77
2022/03/13 09:01:25;;;;;;;16.20;7.95;;;;;;;3.26;52.06;100974.25;5041700;28;20085;-82
2022/03/13 09:03:53;;;;;;;19.80;9.43;;;;;;;3.32;52.58;101000.41;5035569;28;20161;-77
2022/03/13 09:06:23;;;;;;;14.02;7.40;;;;;;;3.26;52.34;100998.38;5044190;28;20648;-79
2022/03/13 09:08:50;;;;;;;15.50;7.28;;;;;;;3.03;52.81;100988.56;5053424;28;20119;-82
2022/03/13 09:11:29;;;;;;;;;;;;;;;2.87;53.41;100985.19;5053827;28;20052;-82
2022/03/13 09:13:56;;;;;;;18.50;8.18;;;;;;;3.07;53.06;100987.91;5053279;28;19931;-79
2022/03/13 09:16:24;;;;;;;18.52;8.95;;;;;;;3.25;53.06;100988.00;5052206;28;20052;-81
2022/03/13 09:18:51;;;;;;;24.17;10.40;;;;;;;3.57;52.85;100971.53;5055773;28;20132;-79
2022/03/13 09:21:19;;;;;;;32.58;15.23;;;;;;;3.64;52.09;100945.16;5052909;28;20119;-78
2022/03/13 09:23:52;;;;;;;38.83;19.25;;;;;;;3.92;51.65;100968.88;5053192;28;20048;-80
2022/03/13 09:26:23;;;;;;;30.42;13.05;;;;;;;4.04;50.90;100972.94;5054803;28;20052;-79
2022/03/13 09:28:49;;;;;;;34.85;15.18;;;;;;;3.92;51.62;100972.34;5053695;28;20547;-79
2022/03/13 09:31:24;;;;;;;27.02;11.88;;;;;;;3.91;51.96;100980.88;5053586;28;20099;-78
2022/03/13 09:33:51;;;;;;;25.77;11.18;;;;;;;3.79;51.90;100942.44;5052539;28;20071;-80
2022/03/13 09:36:18;;;;;;;20.10;8.77;;;;;;;4.09;51.63;100975.72;5052114;28;20505;-79
2022/03/13 09:38:45;;;;;;;18.63;9.15;;;;;;;4.12;51.51;100955.16;5052628;28;20099;-79
2022/03/13 09:41:13;;;;;;;22.08;8.65;;;;;;;4.44;50.58;100973.88;5050514;28;20531;-80
2022/03/13 09:43:40;;;;;;;13.88;6.90;;;;;;;4.39;49.98;100971.09;5051916;28;20049;-78
2022/03/13 09:46:07;;;;;;;16.02;6.15;;;;;;;4.16;51.02;100976.91;5051778;28;20456;-78
2022/03/13 09:48:37;;;;;;;9.88;5.97;;;;;;;3.87;50.82;100966.94;5051818;28;20147;-79
2022/03/13 09:51:06;;;;;;;13.23;6.65;;;;;;;3.67;50.93;100957.34;5049269;28;20045;-79
2022/03/13 09:53:34;;;;;;;15.35;6.88;;;;;;;3.81;51.63;100942.50;5048844;28;20040;-80
2022/03/13 09:56:04;;;;;;;11.88;5.88;;;;;;;3.89;51.07;100930.81;5051711;28;20163;-79
2022/03/13 09:58:32;;;;;;;12.35;6.60;;;;;;;3.73;51.26;100955.06;5051882;28;20052;-78
2022/03/13 10:01:00;;;;;;;14.70;6.80;;;;;;;3.73;51.70;100959.34;5051667;28;20073;-78
2022/03/13 10:03:27;;;;;;;15.73;6.93;;;;;;;3.70;51.42;100952.34;5050715;28;20056;-79
2022/03/13 10:05:58;;;;;;;20.88;7.85;;;;;;;3.86;51.83;100956.53;5051517;28;20049;-79
2022/03/13 10:08:30;;;;;;;18.80;8.25;;;;;;;4.23;51.27;100956.53;5050919;28;20052;-78
2022/03/13 10:11:02;;;;;;;19.23;9.02;;;;;;;4.55;50.01;100941.59;5050143;28;20064;-78
2022/03/13 10:13:38;;;;;;;21.98;9.63;;;;;;;4.76;49.86;100941.69;5049471;28;20629;-76
2022/03/13 10:16:06;;;;;;;14.50;6.70;;;;;;;4.76;48.72;100940.81;5052375;28;20049;-77
2022/03/13 10:18:34;;;;;;;12.23;6.45;;;;;;;4.83;48.48;100951.47;5053501;28;20497;-79
2022/03/13 10:21:11;;;;;;;13.82;7.30;;;;;;;4.62;48.70;100935.88;5052995;28;20082;-79
2022/03/13 10:23:39;;;;;;;15.80;7.63;;;;;;;4.68;49.37;100924.94;5044273;28;20049;-79
2022/03/13 10:26:07;;;;;;;22.95;11.23;;;;;;;4.63;49.15;100910.91;5035021;28;20053;-78
2022/03/13 10:28:36;;;;;;;17.60;9.05;;;;;;;4.83;48.90;100915.22;5032868;28;20087;-78
2022/03/13 10:31:03;;;;;;;21.02;10.05;;;;;;;4.74;49.29;100920.03;5035599;28;20080;-79
2022/03/13 10:33:54;;;;;;;22.17;9.93;;;;;;;4.63;49.45;100911.78;5035741;28;20057;-78
2022/03/13 10:36:31;;;;;;;25.88;10.80;;;;;;;4.67;49.39;100911.09;5036067;28;20045;-79
2022/03/13 10:39:03;;;;;;;19.02;10.07;;;;;;;4.81;48.95;100903.94;5035506;28;20493;-78
2022/03/13 10:41:45;;;;;;;19.00;9.63;;;;;;;5.00;48.91;100915.97;5036034;28;20077;-79
2022/03/13 10:44:22;;;;;;;16.08;7.68;;;;;;;4.86;48.38;100894.69;5035475;28;20049;-81
2022/03/13 10:46:57;;;;;;;18.58;8.77;;;;;;;4.81;48.36;100896.16;5035058;28;20057;-80
2022/03/13 10:49:44;;;;;;;19.58;9.80;;;;;;;4.69;49.22;100906.00;5035433;28;20085;-79
2022/03/13 10:52:31;;;;;;;18.75;10.32;;;;;;;4.57;49.42;100898.56;5035336;28;20050;-79
2022/03/13 10:55:18;;;;;;;31.73;16.02;;;;;;;4.37;49.33;100868.38;5017519;28;20433;-78
2022/03/13 10:57:54;;;;;;;30.33;13.75;;;;;;;4.18;49.72;100851.13;5037155;28;20049;-79
2022/03/13 11:00:22;;;;;;;28.73;11.85;;;;;;;4.33;49.90;100881.97;5043198;28;20088;-79
2022/03/13 11:02:50;;;;;;;23.33;11.40;;;;;;;4.60;49.35;100898.69;5034974;28;20058;-79
2022/03/13 11:05:17;;;;;;;15.73;9.05;;;;;;;4.88;49.24;100910.25;5034696;28;20423;-78
2022/03/13 11:07:49;;;;;;;18.52;10.43;;;;;;;4.90;48.94;100881.03;5035147;28;20088;-79
2022/03/13 11:10:17;;;;;;;18.75;8.80;;;;;;;4.95;48.28;100888.09;5035029;28;20050;-78
2022/03/13 11:12:47;;;;;;;20.13;9.35;;;;;;;4.71;48.79;100896.56;5035136;28;20083;-79
2022/03/13 11:15:14;;;;;;;15.25;8.23;;;;;;;4.33;49.27;100881.97;5035385;28;20069;-78
2022/03/13 11:17:46;;;;;;;17.50;8.38;;;;;;;4.05;50.43;100884.19;5067753;28;20497;-78
2022/03/13 11:20:13;;;;;;;15.55;8.60;;;;;;;3.93;50.63;100875.84;5054751;28;20052;-78
2022/03/13 11:22:40;;;;;;;16.90;9.30;;;;;;;3.59;50.85;100855.28;5054259;28;20088;-81
2022/03/13 11:25:09;;;;;;;20.98;11.10;;;;;;;3.63;51.24;100865.84;5036760;28;20052;-79
2022/03/13 11:27:39;;;;;;;21.08;10.88;;;;;;;3.76;50.91;100880.22;5054515;28;20049;-81